Time;durP1;ratioP1;P1;durP2;ratioP2;P2;SDS_P1;SDS_P2;PMS_P1;PMS_P2;Temp;Humidity;BMP_temperature;BMP_pressure;BME280_temperature;BME280_humidity;BME280_pressure;Samples;Min_cycle;Max_cycle;Signal;HPM_P1;HPM_P2
2021/11/09 00:01:16;;;;;;;0.00;0.00;;;;;;;10.85;100.00;99289.84;5111097;28;20478;-73
2021/11/09 00:03:49;;;;;;;0.00;0.00;;;;;;;10.86;100.00;99292.28;5113094;28;20039;-75
2021/11/09 00:06:21;;;;;;;0.00;0.00;;;;;;;10.85;100.00;99288.00;5112696;28;20038;-74
2021/11/09 00:09:04;;;;;;;0.05;0.05;;;;;;;10.74;100.00;99289.06;5110857;28;20035;-74
2021/11/09 00:11:29;;;;;;;0.00;0.00;;;;;;;10.80;100.00;99295.22;5111765;28;20398;-72
2021/11/09 00:13:55;;;;;;;0.00;0.00;;;;;;;10.80;100.00;99292.53;5112556;28;20027;-72
2021/11/09 00:16:21;;;;;;;0.40;0.40;;;;;;;10.79;100.00;99296.28;5112638;28;20028;-71
2021/11/09 00:18:48;;;;;;;0.00;0.00;;;;;;;10.74;100.00;99299.78;5107230;28;20053;-72
2021/11/09 00:21:15;;;;;;;0.28;0.28;;;;;;;10.78;100.00;99308.06;5112720;28;20059;-71
2021/11/09 00:23:41;;;;;;;0.00;0.00;;;;;;;10.68;100.00;99285.63;5111226;28;20026;-72
2021/11/09 00:26:07;;;;;;;0.00;0.00;;;;;;;10.72;100.00;99294.69;5112428;28;20042;-73
2021/11/09 00:28:33;;;;;;;0.73;0.43;;;;;;;10.73;100.00;99296.31;5112591;28;20059;-73
2021/11/09 00:30:58;;;;;;;0.00;0.00;;;;;;;10.66;100.00;99278.94;5112244;28;20066;-74
2021/11/09 00:33:24;;;;;;;0.00;0.00;;;;;;;10.68;100.00;99288.28;5110679;28;20051;-74
2021/11/09 00:35:50;;;;;;;0.00;0.00;;;;;;;10.66;100.00;99286.97;5112398;28;20034;-72
2021/11/09 00:38:15;;;;;;;0.00;0.00;;;;;;;10.65;100.00;99282.69;5112296;28;20402;-73
2021/11/09 00:40:42;;;;;;;0.00;0.00;;;;;;;10.70;100.00;99293.38;5111464;28;20099;-79
2021/11/09 00:43:10;;;;;;;0.00;0.00;;;;;;;10.62;100.00;99276.00;5110890;28;20411;-80
2021/11/09 00:45:35;;;;;;;0.00;0.00;;;;;;;10.71;100.00;99290.41;5110627;28;20027;-80
2021/11/09 00:48:02;;;;;;;0.00;0.00;;;;;;;10.73;100.00;99293.63;5107464;28;20043;-77
2021/11/09 00:50:29;;;;;;;0.17;0.17;;;;;;;10.69;100.00;99297.09;5111023;28;20027;-74
2021/11/09 00:52:55;;;;;;;0.00;0.00;;;;;;;10.67;100.00;99286.69;5095469;28;20035;-74
2021/11/09 00:55:21;;;;;;;0.00;0.00;;;;;;;10.77;100.00;99291.22;5091724;28;20487;-72
2021/11/09 00:57:48;;;;;;;0.00;0.00;;;;;;;10.76;100.00;99294.16;5091505;28;20032;-72
2021/11/09 01:00:18;;;;;;;0.00;0.00;;;;;;;10.79;100.00;99293.59;5105546;28;20525;-72
2021/11/09 01:02:44;;;;;;;0.00;0.00;;;;;;;10.73;100.00;99290.94;5111461;28;20032;-73
2021/11/09 01:05:11;;;;;;;0.00;0.00;;;;;;;10.75;100.00;99300.59;5111323;27;20024;-72
2021/11/09 01:07:37;;;;;;;0.00;0.00;;;;;;;10.80;100.00;99312.09;5111337;28;20038;-72
2021/11/09 01:10:04;;;;;;;0.08;0.08;;;;;;;10.76;100.00;99311.00;5111477;28;20023;-71
2021/11/09 01:12:31;;;;;;;0.00;0.00;;;;;;;10.76;100.00;99305.66;5111903;28;20032;-73
2021/11/09 01:14:58;;;;;;;0.00;0.00;;;;;;;10.77;100.00;99290.44;5110900;28;20024;-74
2021/11/09 01:17:24;;;;;;;0.00;0.00;;;;;;;10.82;100.00;99290.41;5110368;28;20085;-73
2021/11/09 01:19:49;;;;;;;0.00;0.00;;;;;;;10.85;100.00;99293.34;5110261;28;20055;-74
2021/11/09 01:22:15;;;;;;;0.00;0.00;;;;;;;10.83;100.00;99284.00;5111436;28;20070;-71
2021/11/09 01:24:41;;;;;;;0.00;0.00;;;;;;;10.89;100.00;99288.25;5111926;28;20092;-72
2021/11/09 01:27:06;;;;;;;0.85;0.85;;;;;;;10.93;100.00;99289.31;5111273;28;20107;-72
2021/11/09 01:29:32;;;;;;;0.00;0.00;;;;;;;10.92;100.00;99287.69;5101477;28;20040;-73
2021/11/09 01:31:57;;;;;;;0.00;0.00;;;;;;;10.94;100.00;99296.25;5091009;28;20027;-71
2021/11/09 01:34:23;;;;;;;0.00;0.00;;;;;;;10.96;100.00;99304.81;5105885;28;20108;-72
2021/11/09 01:36:48;;;;;;;0.00;0.00;;;;;;;10.95;100.00;99311.25;5111373;28;20099;-71
2021/11/09 01:39:14;;;;;;;0.00;0.00;;;;;;;10.97;100.00;99310.97;5111367;28;20055;-75
2021/11/09 01:41:41;;;;;;;0.00;0.00;;;;;;;10.94;100.00;99301.63;5111348;28;20058;-72
2021/11/09 01:44:07;;;;;;;0.00;0.00;;;;;;;10.92;100.00;99294.94;5110871;28;20039;-72
2021/11/09 01:46:33;;;;;;;0.03;0.03;;;;;;;10.99;100.00;99314.97;5110622;28;20083;-75
2021/11/09 01:48:59;;;;;;;0.00;0.00;;;;;;;10.92;100.00;99300.28;5110521;28;20531;-75
2021/11/09 01:51:25;;;;;;;0.00;0.00;;;;;;;11.03;100.00;99313.38;5110904;28;20081;-75
2021/11/09 01:53:53;;;;;;;0.00;0.00;;;;;;;11.03;100.00;99308.03;5106480;28;20048;-76
2021/11/09 01:56:22;;;;;;;0.00;0.00;;;;;;;10.97;100.00;99293.03;5090953;28;20024;-74
2021/11/09 01:58:47;;;;;;;;;;;;;;;11.08;100.00;99303.72;5091110;28;20039;-74
2021/11/09 02:01:16;;;;;;;0.03;0.03;;;;;;;11.04;100.00;99298.88;5095619;28;19915;-82
2021/11/09 02:03:44;;;;;;;0.00;0.00;;;;;;;11.00;100.00;99299.72;5099372;28;20035;-74
2021/11/09 02:06:11;;;;;;;0.00;0.00;;;;;;;11.09;100.00;99310.66;5110022;28;20020;-76
2021/11/09 02:08:37;;;;;;;0.05;0.05;;;;;;;11.14;100.00;99318.69;5109584;28;20055;-77
2021/11/09 02:11:03;;;;;;;0.00;0.00;;;;;;;11.13;100.00;99309.84;5110508;28;20062;-76
2021/11/09 02:13:29;;;;;;;0.00;0.00;;;;;;;11.13;100.00;99315.22;5109708;28;20032;-75
2021/11/09 02:15:54;;;;;;;0.00;0.00;;;;;;;11.15;100.00;99307.69;5111056;28;20032;-77
2021/11/09 02:18:21;;;;;;;0.00;0.00;;;;;;;11.16;100.00;99306.63;5109431;28;20043;-77
2021/11/09 02:20:59;;;;;;;0.00;0.00;;;;;;;11.19;100.00;99306.09;5106358;28;20028;-76
2021/11/09 02:23:26;;;;;;;2.78;0.70;;;;;;;11.12;100.00;99296.72;5100198;28;20035;-75
2021/11/09 02:25:52;;;;;;;0.00;0.00;;;;;;;11.19;100.00;99294.56;5114781;27;20059;-72
2021/11/09 02:28:18;;;;;;;0.00;0.00;;;;;;;11.14;100.00;99300.72;5113561;28;20506;-73
2021/11/09 02:30:44;;;;;;;0.00;0.00;;;;;;;11.17;100.00;99312.78;5094795;28;20078;-73
2021/11/09 02:33:10;;;;;;;0.00;0.00;;;;;;;11.23;100.00;99322.41;5101139;28;20085;-73
2021/11/09 02:35:36;;;;;;;0.00;0.00;;;;;;;11.19;100.00;99316.78;5114478;28;20031;-72
2021/11/09 02:38:03;;;;;;;0.00;0.00;;;;;;;11.27;100.00;99328.03;5094131;28;20044;-71
2021/11/09 02:40:28;;;;;;;0.00;0.00;;;;;;;11.27;100.00;99326.13;5108830;28;20120;-72
2021/11/09 02:42:58;;;;;;;0.00;0.00;;;;;;;11.26;100.00;99321.06;5100664;28;20060;-71
2021/11/09 02:45:38;;;;;;;0.00;0.00;;;;;;;11.32;100.00;99341.38;5094285;28;20045;-73
2021/11/09 02:48:10;;;;;;;0.00;0.00;;;;;;;11.25;100.00;99322.91;5109775;28;20024;-74
2021/11/09 02:50:44;;;;;;;0.00;0.00;;;;;;;11.21;100.00;99314.63;5111315;28;20044;-73
2021/11/09 02:56:02;;;;;;;0.00;0.00;;;;;;;11.31;100.00;99337.88;5103793;28;20043;-74
2021/11/09 02:58:42;;;;;;;0.00;0.00;;;;;;;11.30;100.00;99335.50;5114210;28;20140;-76
2021/11/09 03:01:21;;;;;;;0.00;0.00;;;;;;;11.31;100.00;99340.56;5113569;28;20039;-76
2021/11/09 03:09:13;;;;;;;0.47;0.30;;;;;;;11.29;100.00;99325.84;5100563;27;20052;-72
2021/11/09 03:11:34;;;;;;;0.00;0.00;;;;;;;11.36;100.00;99345.09;5102194;28;20043;-73
2021/11/09 03:14:01;;;;;;;0.00;0.00;;;;;;;11.35;100.00;99346.16;5099928;28;20168;-74
2021/11/09 03:16:31;;;;;;;0.00;0.00;;;;;;;11.37;100.00;99349.38;5095746;28;20526;-72
2021/11/09 03:19:18;;;;;;;0.00;0.00;;;;;;;11.23;100.00;99330.44;5113486;28;20153;-75
2021/11/09 03:46:43;;;;;;;0.00;0.00;;;;;;;11.31;100.00;99372.69;5113187;28;20038;-73
2021/11/09 03:49:09;;;;;;;0.03;0.03;;;;;;;11.21;100.00;99364.69;5112723;27;20035;-74
2021/11/09 03:51:35;;;;;;;0.00;0.00;;;;;;;11.24;100.00;99369.50;5112670;28;20058;-72
2021/11/09 03:54:04;;;;;;;0.00;0.00;;;;;;;11.16;100.00;99356.69;5093104;28;20067;-72
2021/11/09 03:56:38;;;;;;;0.00;0.00;;;;;;;11.10;100.00;99361.25;5111396;28;20615;-72
2021/11/09 03:59:08;;;;;;;0.10;0.10;;;;;;;11.16;100.00;99378.09;5106742;28;20040;-73
2021/11/09 04:01:44;;;;;;;0.00;0.00;;;;;;;11.18;100.00;99392.81;5112979;28;20023;-77
2021/11/09 04:20:41;;;;;;;0.00;0.00;;;;;;;11.24;100.00;99443.66;5099913;28;20032;-74
2021/11/09 04:52:03;;;;;;;0.38;0.38;;;;;;;10.99;100.00;99480.09;5111622;28;20069;-78
2021/11/09 05:02:48;;;;;;;0.13;0.13;;;;;;;10.87;100.00;99462.41;5111099;28;20538;-73
2021/11/09 05:10:35;;;;;;;0.53;0.53;;;;;;;10.76;100.00;99463.50;5111304;28;20098;-72
2021/11/09 05:13:01;;;;;;;0.88;0.88;;;;;;;10.70;100.00;99457.31;5110749;28;20107;-75
2021/11/09 05:15:27;;;;;;;0.20;0.20;;;;;;;10.71;100.00;99477.66;5109770;28;20122;-74
2021/11/09 05:17:53;;;;;;;0.98;0.93;;;;;;;10.72;100.00;99495.31;5110174;28;20038;-71
2021/11/09 05:20:18;;;;;;;1.48;1.38;;;;;;;10.75;100.00;99503.91;5109976;28;20490;-70
2021/11/09 05:22:45;;;;;;;0.47;0.47;;;;;;;10.70;100.00;99513.50;5109243;28;20026;-72
2021/11/09 05:25:11;;;;;;;0.38;0.38;;;;;;;10.77;100.00;99517.81;5110173;28;20102;-69
2021/11/09 05:27:37;;;;;;;0.50;0.45;;;;;;;10.79;100.00;99513.81;5110522;28;20106;-81
2021/11/09 05:30:05;;;;;;;0.10;0.10;;;;;;;10.80;100.00;99518.09;5109189;28;20065;-75
2021/11/09 05:32:31;;;;;;;0.17;0.17;;;;;;;10.68;100.00;99498.78;5109932;28;20047;-75
2021/11/09 05:34:56;;;;;;;0.38;0.38;;;;;;;10.85;100.00;99518.09;5110946;28;20077;-75
2021/11/09 05:37:26;;;;;;;1.70;1.58;;;;;;;10.87;100.00;99531.19;5111509;28;20039;-75
2021/11/09 05:39:53;;;;;;;0.55;0.47;;;;;;;10.91;100.00;99528.78;5109909;28;20052;-76
2021/11/09 05:42:20;;;;;;;0.20;0.20;;;;;;;10.90;100.00;99522.66;5109858;28;20436;-75
2021/11/09 05:44:45;;;;;;;0.10;0.10;;;;;;;11.01;100.00;99540.31;5111049;28;20024;-75
2021/11/09 05:47:12;;;;;;;0.40;0.40;;;;;;;11.02;100.00;99533.06;5110861;28;20403;-75
2021/11/09 05:49:38;;;;;;;2.85;1.27;;;;;;;11.12;100.00;99543.81;5111459;28;20577;-75
2021/11/09 05:52:05;;;;;;;0.20;0.20;;;;;;;11.14;100.00;99546.22;5109887;28;20027;-75
2021/11/09 05:54:30;;;;;;;0.00;0.00;;;;;;;11.17;100.00;99546.47;5111004;28;20425;-75
2021/11/09 05:56:56;;;;;;;0.20;0.20;;;;;;;11.20;100.00;99556.66;5112238;28;20035;-75
2021/11/09 05:59:21;;;;;;;0.10;0.10;;;;;;;11.21;100.00;99563.59;5115387;28;20027;-75
2021/11/09 06:01:47;;;;;;;0.98;0.90;;;;;;;11.23;100.00;99565.22;5115235;28;20497;-75
2021/11/09 06:04:13;;;;;;;0.10;0.10;;;;;;;11.17;100.00;99559.88;5113737;28;20037;-75
2021/11/09 06:06:39;;;;;;;0.30;0.30;;;;;;;11.20;100.00;99577.25;5115088;28;20137;-75
2021/11/09 06:09:05;;;;;;;0.75;0.75;;;;;;;11.22;100.00;99580.47;5113780;28;20114;-75
2021/11/09 06:11:30;;;;;;;0.10;0.10;;;;;;;11.14;100.00;99575.66;5115005;28;20024;-75
2021/11/09 06:13:56;;;;;;;0.63;0.63;;;;;;;11.12;100.00;99589.31;5113662;28;20474;-75
2021/11/09 06:16:22;;;;;;;0.17;0.17;;;;;;;11.09;100.00;99597.06;5115225;28;20034;-75
2021/11/09 06:18:47;;;;;;;1.20;1.20;;;;;;;11.07;100.00;99591.16;5113858;28;20034;-75
2021/11/09 06:21:13;;;;;;;0.20;0.20;;;;;;;11.03;100.00;99602.41;5113418;28;20115;-75
2021/11/09 06:23:38;;;;;;;0.25;0.25;;;;;;;11.02;100.00;99599.97;5113596;28;20114;-75
2021/11/09 06:26:04;;;;;;;0.03;0.03;;;;;;;10.99;100.00;99597.84;5114553;28;20027;-75
2021/11/09 06:28:30;;;;;;;1.15;1.10;;;;;;;10.95;100.00;99588.72;5115148;28;20413;-75
2021/11/09 06:30:56;;;;;;;0.13;0.13;;;;;;;11.02;100.00;99597.31;5114530;28;20092;-75
2021/11/09 06:33:22;;;;;;;0.50;0.50;;;;;;;11.02;100.00;99597.31;5114944;28;20082;-75
2021/11/09 06:35:48;;;;;;;0.05;0.05;;;;;;;11.07;100.00;99599.19;5114863;28;20070;-75
2021/11/09 06:38:13;;;;;;;0.20;0.20;;;;;;;11.11;100.00;99605.63;5114861;28;20063;-75
2021/11/09 06:40:39;;;;;;;0.00;0.00;;;;;;;11.15;100.00;99602.16;5113137;28;20067;-76
2021/11/09 06:43:06;;;;;;;0.00;0.00;;;;;;;11.19;100.00;99595.22;5114560;28;20024;-75
2021/11/09 06:45:33;;;;;;;0.10;0.10;;;;;;;11.18;100.00;99577.53;5113338;28;20030;-75
2021/11/09 06:47:59;;;;;;;0.00;0.00;;;;;;;11.29;100.00;99586.38;5114143;28;20410;-75
2021/11/09 06:50:24;;;;;;;0.00;0.00;;;;;;;11.33;100.00;99584.75;5113065;28;20030;-75
2021/11/09 06:52:51;;;;;;;0.10;0.10;;;;;;;11.34;100.00;99580.22;5112783;28;20030;-75
2021/11/09 06:55:16;;;;;;;0.00;0.00;;;;;;;11.33;100.00;99573.25;5112869;28;20980;-75
2021/11/09 06:57:43;;;;;;;0.32;0.32;;;;;;;11.45;100.00;99594.41;5113031;28;20063;-76
2021/11/09 07:00:14;;;;;;;0.00;0.00;;;;;;;11.39;100.00;99577.53;5114079;28;20051;-74
2021/11/09 07:02:39;;;;;;;0.60;0.60;;;;;;;11.46;100.00;99578.09;5114132;28;20022;-75
2021/11/09 07:05:06;;;;;;;0.40;0.30;;;;;;;11.49;100.00;99571.38;5112522;28;20035;-74
2021/11/09 07:07:31;;;;;;;0.00;0.00;;;;;;;11.53;100.00;99577.78;5114058;28;20056;-74
2021/11/09 07:09:57;;;;;;;0.00;0.00;;;;;;;11.59;100.00;99590.13;5113677;28;20062;-76
2021/11/09 07:12:22;;;;;;;0.10;0.10;;;;;;;11.63;100.00;99585.84;5112681;28;20447;-76
2021/11/09 07:14:50;;;;;;;0.00;0.00;;;;;;;11.69;100.00;99586.63;5114125;28;20124;-75
2021/11/09 07:17:15;;;;;;;0.00;0.00;;;;;;;11.66;100.00;99566.53;5112561;28;20069;-75
2021/11/09 07:19:47;;;;;;;0.00;0.00;;;;;;;11.78;100.00;99574.28;5112717;28;20055;-75
2021/11/09 07:22:12;;;;;;;0.00;0.00;;;;;;;11.83;100.00;99562.78;5112442;28;20039;-75
2021/11/09 07:24:37;;;;;;;0.00;0.00;;;;;;;11.87;100.00;99560.34;5112680;28;20473;-75
2021/11/09 07:27:03;;;;;;;0.00;0.00;;;;;;;11.94;100.00;99552.84;5113423;27;20023;-75
2021/11/09 07:29:29;;;;;;;1.10;0.73;;;;;;;12.06;100.00;99568.63;5114157;28;20031;-76
2021/11/09 07:31:56;;;;;;;0.00;0.00;;;;;;;12.13;100.00;99586.03;5113752;28;20027;-75
2021/11/09 07:34:21;;;;;;;0.15;0.15;;;;;;;12.14;100.00;99576.91;5112204;28;20122;-75
2021/11/09 07:36:47;;;;;;;0.00;0.00;;;;;;;12.23;100.00;99587.88;5113363;28;20099;-76
2021/11/09 07:39:12;;;;;;;0.00;0.00;;;;;;;12.26;100.00;99586.53;5111880;28;20039;-75
2021/11/09 07:41:41;;;;;;;0.08;0.08;;;;;;;12.29;100.00;99585.97;5113008;28;20028;-76
2021/11/09 07:44:08;;;;;;;0.20;0.20;;;;;;;12.44;100.00;99609.28;5112046;28;20034;-75
2021/11/09 07:46:34;;;;;;;0.10;0.10;;;;;;;12.47;100.00;99609.53;5113640;28;20031;-75
2021/11/09 07:49:01;;;;;;;0.00;0.00;;;;;;;12.54;100.00;99600.38;5113508;28;20114;-75
2021/11/09 07:51:27;;;;;;;0.00;0.00;;;;;;;12.58;100.00;99594.16;5113391;28;20028;-76
2021/11/09 07:53:56;;;;;;;0.00;0.00;;;;;;;12.65;100.00;99585.81;5113711;28;20034;-75
2021/11/09 07:56:23;;;;;;;0.00;0.00;;;;;;;12.67;100.00;99574.81;5113176;28;20015;-76
2021/11/09 08:01:45;;;;;;;0.00;0.00;;;;;;;12.82;100.00;99597.00;5113169;28;20084;-77
2021/11/09 08:11:44;;;;;;;0.00;0.00;;;;;;;13.02;100.00;99607.91;5112746;28;20042;-75
2021/11/09 08:14:10;;;;;;;0.10;0.10;;;;;;;13.03;100.00;99607.63;5112377;28;20027;-75
2021/11/09 08:16:36;;;;;;;0.00;0.00;;;;;;;13.09;100.00;99614.56;5111631;28;20546;-75
2021/11/09 08:19:02;;;;;;;0.10;0.10;;;;;;;13.11;100.00;99614.31;5111288;28;20479;-75
2021/11/09 08:21:28;;;;;;;0.52;0.35;;;;;;;13.13;100.00;99617.50;5110440;28;20031;-76
2021/11/09 08:23:54;;;;;;;0.00;0.00;;;;;;;13.16;100.00;99611.56;5112758;28;20028;-74
2021/11/09 08:26:23;;;;;;;0.00;0.00;;;;;;;13.19;100.00;99611.00;5111210;28;20024;-76
2021/11/09 08:28:49;;;;;;;0.00;0.00;;;;;;;13.25;100.00;99617.16;5111272;28;20035;-75
2021/11/09 08:31:17;;;;;;;0.10;0.10;;;;;;;13.26;100.00;99619.56;5111139;28;20110;-75
2021/11/09 08:33:43;;;;;;;0.40;0.40;;;;;;;13.34;100.00;99623.53;5111339;28;20043;-75
2021/11/09 08:36:12;;;;;;;0.00;0.00;;;;;;;13.37;100.00;99622.97;5112332;27;20398;-76
2021/11/09 08:38:37;;;;;;;0.00;0.00;;;;;;;13.38;100.00;99607.69;5111111;28;20554;-75
2021/11/09 08:41:05;;;;;;;0.68;0.68;;;;;;;13.36;100.00;99597.19;5110555;28;20114;-75
2021/11/09 08:43:34;;;;;;;0.00;0.00;;;;;;;13.41;100.00;99601.75;5112542;28;20467;-75
2021/11/09 08:46:07;;;;;;;0.00;0.00;;;;;;;13.46;100.00;99609.75;5112343;28;20249;-75
2021/11/09 08:48:38;;;;;;;0.20;0.20;;;;;;;13.45;99.52;99589.34;5112208;28;20081;-75
2021/11/09 08:51:08;;;;;;;0.10;0.10;;;;;;;13.43;98.90;99580.78;5110754;28;20031;-75
2021/11/09 08:53:39;;;;;;;0.30;0.30;;;;;;;13.45;99.67;99586.66;5112192;28;20028;-76
2021/11/09 09:04:18;;;;;;;0.00;0.00;;;;;;;13.49;99.93;99593.09;5112153;28;20038;-76
2021/11/09 09:06:55;;;;;;;0.00;0.00;;;;;;;13.61;100.00;99614.22;5112037;28;20027;-75
2021/11/09 09:09:21;;;;;;;0.08;0.08;;;;;;;13.67;100.00;99617.66;5111702;28;20019;-76
2021/11/09 09:11:48;;;;;;;0.00;0.00;;;;;;;13.65;99.68;99606.41;5111804;28;20422;-75
2021/11/09 09:14:14;;;;;;;0.10;0.10;;;;;;;13.72;99.19;99629.16;5110219;28;20031;-73
2021/11/09 09:16:45;;;;;;;0.65;0.65;;;;;;;13.67;99.02;99625.72;5110484;28;20027;-76
2021/11/09 09:19:12;;;;;;;0.43;0.43;;;;;;;13.74;99.42;99639.63;5111799;28;20065;-75
2021/11/09 09:21:44;;;;;;;0.00;0.00;;;;;;;13.70;99.07;99617.88;5110321;28;20470;-75
2021/11/09 09:29:36;;;;;;;0.08;0.08;;;;;;;13.76;99.12;99654.41;5111412;28;20395;-75
2021/11/09 09:54:02;;;;;;;0.10;0.10;;;;;;;13.53;99.21;99634.44;5111351;28;20076;-75
2021/11/09 09:56:45;;;;;;;0.40;0.40;;;;;;;13.44;99.11;99614.63;5111097;28;20027;-76
2021/11/09 09:59:11;;;;;;;0.28;0.28;;;;;;;13.44;98.91;99625.38;5111381;28;20062;-75
2021/11/09 10:01:41;;;;;;;1.75;1.05;;;;;;;13.42;98.05;99630.22;5111153;28;20059;-76
2021/11/09 10:04:31;;;;;;;2.65;0.32;;;;;;;13.48;98.19;99642.53;5111075;28;20073;-76
2021/11/09 10:06:57;;;;;;;0.45;0.45;;;;;;;13.44;97.79;99644.19;5111308;28;20027;-76
2021/11/09 10:09:31;;;;;;;0.43;0.43;;;;;;;13.44;98.00;99638.81;5109704;28;20024;-76
2021/11/09 10:12:13;;;;;;;0.98;0.98;;;;;;;13.33;97.40;99626.50;5111146;28;20085;-75
2021/11/09 10:14:38;;;;;;;2.15;0.63;;;;;;;13.39;99.01;99633.44;5109859;28;20047;-76
2021/11/09 10:17:16;;;;;;;0.68;0.68;;;;;;;13.41;98.98;99640.16;5111206;28;20192;-75
2021/11/09 10:19:41;;;;;;;3.45;1.73;;;;;;;13.31;99.00;99629.47;5111383;28;20066;-75
2021/11/09 10:22:16;;;;;;;0.40;0.25;;;;;;;13.40;99.83;99641.25;5110906;28;20114;-75
2021/11/09 10:24:41;;;;;;;0.35;0.35;;;;;;;13.38;99.46;99645.31;5110803;28;20107;-76
2021/11/09 10:27:12;;;;;;;0.85;0.85;;;;;;;13.39;100.00;99645.03;5111275;28;20049;-75
2021/11/09 10:29:40;;;;;;;0.85;0.85;;;;;;;13.43;100.00;99648.75;5111047;28;20110;-76
2021/11/09 10:32:20;;;;;;;0.45;0.45;;;;;;;13.34;99.28;99644.22;5109672;28;20023;-75
2021/11/09 10:34:46;;;;;;;0.10;0.10;;;;;;;13.37;100.00;99638.28;5111279;28;20035;-75
2021/11/09 10:37:20;;;;;;;0.35;0.35;;;;;;;13.42;99.78;99643.66;5110750;28;20032;-75
2021/11/09 10:44:39;;;;;;;0.80;0.80;;;;;;;13.39;100.00;99649.56;5111432;28;20047;-75
2021/11/09 10:47:23;;;;;;;3.03;0.47;;;;;;;13.51;100.00;99668.84;5114533;27;20034;-75
2021/11/09 10:50:06;;;;;;;0.75;0.75;;;;;;;13.46;99.98;99660.81;5114533;28;20027;-76
2021/11/09 10:52:36;;;;;;;0.50;0.50;;;;;;;13.51;99.43;99665.34;5112978;28;20027;-75
2021/11/09 10:55:16;;;;;;;0.63;0.63;;;;;;;13.54;99.81;99660.22;5114324;28;20622;-76
2021/11/09 11:03:48;;;;;;;0.10;0.10;;;;;;;13.70;98.02;99674.34;5114419;28;20172;-77
2021/11/09 11:06:20;;;;;;;0.47;0.47;;;;;;;13.66;97.80;99650.97;5114026;28;20031;-75
2021/11/09 11:08:50;;;;;;;0.25;0.25;;;;;;;13.65;98.51;99649.41;5112878;28;20034;-76
2021/11/09 11:11:18;;;;;;;1.17;1.05;;;;;;;13.82;98.39;99652.47;5112535;28;20028;-76
2021/11/09 11:13:45;;;;;;;0.10;0.10;;;;;;;13.88;96.55;99661.31;5114244;28;20032;-76
2021/11/09 11:16:14;;;;;;;0.52;0.47;;;;;;;13.93;95.83;99664.72;5112605;28;20510;-76
2021/11/09 11:18:55;;;;;;;0.20;0.20;;;;;;;13.96;96.03;99649.91;5114078;28;20031;-76
2021/11/09 11:21:26;;;;;;;0.75;0.75;;;;;;;14.11;95.06;99658.94;5114088;28;20020;-76
2021/11/09 11:23:52;;;;;;;0.10;0.10;;;;;;;14.12;94.12;99655.94;5112671;28;20016;-75
2021/11/09 11:26:18;;;;;;;1.08;1.08;;;;;;;14.17;93.38;99672.06;5113721;28;20069;-76
2021/11/09 11:28:48;;;;;;;0.75;0.75;;;;;;;14.14;93.61;99661.06;5113812;28;20016;-75
2021/11/09 11:31:14;;;;;;;3.83;0.95;;;;;;;14.25;93.94;99659.84;5113497;28;20049;-75
2021/11/09 11:33:41;;;;;;;0.63;0.63;;;;;;;14.28;93.99;99656.63;5112483;28;20491;-74
2021/11/09 11:36:07;;;;;;;0.10;0.10;;;;;;;14.35;93.78;99670.50;5112135;28;20398;-76
2021/11/09 11:38:36;;;;;;;0.95;0.35;;;;;;;14.45;92.95;99658.03;5113772;28;20439;-76
2021/11/09 11:41:03;;;;;;;0.68;0.60;;;;;;;14.50;91.86;99664.16;5112050;28;20040;-76
2021/11/09 11:43:47;;;;;;;1.95;1.05;;;;;;;14.58;92.75;99670.81;5113651;28;20019;-76
2021/11/09 11:46:36;;;;;;;0.00;0.00;;;;;;;14.58;92.42;99651.97;5111905;28;20419;-76
2021/11/09 11:49:06;;;;;;;2.05;0.30;;;;;;;14.61;91.58;99666.72;5111913;28;20027;-76
2021/11/09 11:51:40;;;;;;;0.22;0.22;;;;;;;14.68;91.74;99694.13;5112203;28;20031;-76
2021/11/09 11:54:07;;;;;;;0.10;0.10;;;;;;;14.73;91.34;99684.13;5111801;28;20549;-76
2021/11/09 11:56:43;;;;;;;0.17;0.17;;;;;;;14.77;90.57;99670.88;5111883;28;20498;-76
2021/11/09 11:59:22;;;;;;;0.50;0.50;;;;;;;14.78;89.80;99680.56;5111842;28;20028;-76
2021/11/09 12:01:54;;;;;;;0.45;0.45;;;;;;;14.76;89.25;99682.75;5112959;28;20031;-77
2021/11/09 12:04:44;;;;;;;0.45;0.45;;;;;;;14.78;88.58;99694.03;5111687;28;20394;-76
2021/11/09 12:07:11;;;;;;;1.65;0.85;;;;;;;14.77;89.34;99683.53;5112736;28;20397;-76
2021/11/09 12:09:40;;;;;;;0.50;0.50;;;;;;;14.68;88.83;99678.81;5113425;28;20027;-75
2021/11/09 12:12:11;;;;;;;1.80;1.50;;;;;;;14.75;89.33;99688.41;5113051;28;20127;-75
2021/11/09 12:15:07;;;;;;;0.65;0.65;;;;;;;14.73;89.03;99692.19;5112837;28;20031;-76
2021/11/09 12:17:35;;;;;;;0.95;0.93;;;;;;;14.68;88.94;99694.97;5104459;28;20043;-75
2021/11/09 12:20:05;;;;;;;0.32;0.32;;;;;;;14.66;89.65;99705.19;5111403;28;20368;-75
2021/11/09 12:22:52;;;;;;;0.35;0.35;;;;;;;14.63;90.12;99713.00;5111323;28;20028;-75
2021/11/09 12:25:37;;;;;;;0.55;0.55;;;;;;;14.59;90.48;99704.72;5112845;28;20027;-75
2021/11/09 12:28:06;;;;;;;0.77;0.77;;;;;;;14.49;90.83;99694.84;5112514;28;20027;-76
2021/11/09 12:30:32;;;;;;;0.22;0.22;;;;;;;14.50;90.76;99712.63;5112527;28;20461;-75
2021/11/09 12:33:11;;;;;;;0.45;0.45;;;;;;;14.45;90.54;99718.03;5112517;28;20055;-74
2021/11/09 12:35:38;;;;;;;1.92;1.83;;;;;;;14.33;90.48;99709.53;5112631;28;20360;-74
2021/11/09 12:38:04;;;;;;;0.82;0.82;;;;;;;14.34;90.94;99721.91;5110876;28;20504;-74
2021/11/09 12:40:32;;;;;;;0.85;0.85;;;;;;;14.33;91.05;99723.81;5112387;28;20106;-75
2021/11/09 12:43:09;;;;;;;;;;;;;;;14.32;91.14;99721.38;5112467;28;20167;-75
2021/11/09 12:45:37;;;;;;;1.33;1.30;;;;;;;14.24;90.66;99709.38;5112434;28;19937;-74
2021/11/09 12:48:04;;;;;;;0.82;0.82;;;;;;;14.20;90.57;99711.81;5112358;28;20025;-74
2021/11/09 12:50:30;;;;;;;0.60;0.47;;;;;;;14.18;90.53;99729.34;5110975;28;20167;-75
2021/11/09 12:53:24;;;;;;;2.55;0.73;;;;;;;14.22;90.42;99735.75;5112233;28;20026;-75
2021/11/09 12:56:15;;;;;;;0.00;0.00;;;;;;;14.24;90.68;99747.03;5109340;28;20038;-75
2021/11/09 12:59:02;;;;;;;0.20;0.20;;;;;;;14.18;90.69;99746.25;5108154;28;20046;-76
2021/11/09 13:09:45;;;;;;;0.45;0.45;;;;;;;14.05;90.09;99755.81;5068570;28;20028;-75
2021/11/09 13:12:18;;;;;;;0.10;0.10;;;;;;;14.09;90.26;99777.56;5082786;28;20080;-75
2021/11/09 13:14:51;;;;;;;0.08;0.08;;;;;;;14.07;90.36;99777.03;5111856;27;20031;-75
2021/11/09 13:17:22;;;;;;;0.28;0.28;;;;;;;13.99;90.74;99770.38;5111681;28;20458;-75
2021/11/09 13:20:16;;;;;;;0.40;0.40;;;;;;;13.99;90.75;99780.31;5111666;28;20020;-75
2021/11/09 13:22:55;;;;;;;0.47;0.47;;;;;;;13.92;90.70;99792.19;5111781;27;20027;-75
2021/11/09 13:25:29;;;;;;;0.65;0.65;;;;;;;13.97;90.81;99809.38;5110312;28;20474;-75
2021/11/09 13:27:54;;;;;;;4.38;0.47;;;;;;;13.85;90.87;99797.06;5111731;28;20040;-75
2021/11/09 13:30:22;;;;;;;0.20;0.20;;;;;;;13.90;91.17;99823.94;5111852;28;20023;-75
2021/11/09 13:32:53;;;;;;;0.25;0.25;;;;;;;13.81;91.17;99814.06;5111761;28;20203;-75
2021/11/09 13:35:19;;;;;;;0.85;0.85;;;;;;;13.83;91.79;99820.78;5111364;28;20042;-74
2021/11/09 13:37:46;;;;;;;0.30;0.30;;;;;;;13.79;91.79;99827.75;5111528;28;20102;-74
2021/11/09 13:40:12;;;;;;;0.52;0.38;;;;;;;13.80;91.98;99842.81;5109951;28;20031;-74
2021/11/09 13:42:38;;;;;;;0.25;0.25;;;;;;;13.75;92.03;99830.19;5110051;28;20474;-74
2021/11/09 13:45:15;;;;;;;0.00;0.00;;;;;;;13.71;91.70;99831.84;5110940;28;20107;-75
2021/11/09 13:47:42;;;;;;;0.75;0.75;;;;;;;13.61;91.87;99811.22;5111099;28;20035;-75
2021/11/09 13:50:11;;;;;;;0.43;0.43;;;;;;;13.66;91.88;99817.63;5109797;28;20088;-75
2021/11/09 13:52:48;;;;;;;0.88;0.88;;;;;;;13.67;91.85;99806.63;5111339;28;20078;-74
2021/11/09 13:55:16;;;;;;;0.00;0.00;;;;;;;13.69;91.66;99811.72;5111142;28;20036;-74
2021/11/09 13:57:42;;;;;;;0.17;0.17;;;;;;;13.71;91.65;99826.47;5110063;28;20027;-73
2021/11/09 14:00:32;;;;;;;0.80;0.75;;;;;;;13.70;91.62;99837.50;5111073;28;20027;-75
2021/11/09 14:11:18;;;;;;;0.70;0.70;;;;;;;13.48;92.16;99837.88;5110980;28;20032;-75
2021/11/09 14:18:54;;;;;;;0.10;0.10;;;;;;;13.48;91.99;99859.38;5113626;28;20043;-75
2021/11/09 14:21:36;;;;;;;0.35;0.35;;;;;;;13.43;91.35;99854.84;5114951;28;20028;-75
2021/11/09 14:24:25;;;;;;;0.10;0.10;;;;;;;13.40;91.52;99861.56;5115005;28;20047;-75
2021/11/09 14:27:04;;;;;;;0.20;0.20;;;;;;;13.31;92.10;99859.69;5113869;28;20023;-75
2021/11/09 14:29:33;;;;;;;0.55;0.55;;;;;;;13.32;91.93;99872.84;5113164;28;20024;-75